sensor_id;sensor_type;location;lat;lon;timestamp;P1;durP1;ratioP1;P2;durP2;ratioP2
6376;SDS011;3221;48.858;10.128;2022-09-09T00:01:43;2.77;;;1.10;;
6376;SDS011;3221;48.858;10.128;2022-09-09T00:04:33;3.03;;;1.20;;
6376;SDS011;3221;48.858;10.128;2022-09-09T00:13:10;4.27;;;1.40;;
6376;SDS011;3221;48.858;10.128;2022-09-09T00:16:04;1.47;;;1.17;;
6376;SDS011;3221;48.858;10.128;2022-09-09T00:21:17;2.37;;;0.97;;
6376;SDS011;3221;48.858;10.128;2022-09-09T00:23:45;1.57;;;1.00;;
6376;SDS011;3221;48.858;10.128;2022-09-09T00:26:28;1.93;;;1.13;;
6376;SDS011;3221;48.858;10.128;2022-09-09T00:31:38;2.17;;;1.40;;
6376;SDS011;3221;48.858;10.128;2022-09-09T00:34:13;2.13;;;1.10;;
6376;SDS011;3221;48.858;10.128;2022-09-09T00:36:52;2.17;;;1.10;;
6376;SDS011;3221;48.858;10.128;2022-09-09T00:50:15;2.60;;;1.07;;
6376;SDS011;3221;48.858;10.128;2022-09-09T00:55:56;2.17;;;1.10;;
6376;SDS011;3221;48.858;10.128;2022-09-09T00:58:42;1.70;;;1.10;;
6376;SDS011;3221;48.858;10.128;2022-09-09T01:01:22;3.13;;;1.20;;
6376;SDS011;3221;48.858;10.128;2022-09-09T01:06:29;2.93;;;0.90;;
6376;SDS011;3221;48.858;10.128;2022-09-09T01:11:36;2.50;;;1.00;;
6376;SDS011;3221;48.858;10.128;2022-09-09T01:16:58;1.93;;;0.90;;
6376;SDS011;3221;48.858;10.128;2022-09-09T01:19:37;1.47;;;0.80;;
6376;SDS011;3221;48.858;10.128;2022-09-09T01:22:10;2.17;;;1.07;;
6376;SDS011;3221;48.858;10.128;2022-09-09T01:27:53;1.93;;;1.10;;
6376;SDS011;3221;48.858;10.128;2022-09-09T01:30:27;1.20;;;0.90;;
6376;SDS011;3221;48.858;10.128;2022-09-09T01:32:57;2.67;;;0.90;;
6376;SDS011;3221;48.858;10.128;2022-09-09T01:38:02;3.37;;;1.17;;
6376;SDS011;3221;48.858;10.128;2022-09-09T01:40:30;2.07;;;1.10;;
6376;SDS011;3221;48.858;10.128;2022-09-09T01:42:58;2.67;;;1.07;;
6376;SDS011;3221;48.858;10.128;2022-09-09T01:45:25;1.77;;;1.10;;
6376;SDS011;3221;48.858;10.128;2022-09-09T01:47:52;1.70;;;1.33;;
6376;SDS011;3221;48.858;10.128;2022-09-09T01:50:55;5.03;;;1.73;;
6376;SDS011;3221;48.858;10.128;2022-09-09T01:53:22;2.07;;;1.40;;
6376;SDS011;3221;48.858;10.128;2022-09-09T01:55:54;5.20;;;1.80;;
6376;SDS011;3221;48.858;10.128;2022-09-09T01:58:59;3.07;;;1.40;;
6376;SDS011;3221;48.858;10.128;2022-09-09T02:04:00;2.43;;;1.30;;
6376;SDS011;3221;48.858;10.128;2022-09-09T02:06:35;2.20;;;1.40;;
6376;SDS011;3221;48.858;10.128;2022-09-09T02:09:16;3.90;;;1.43;;
6376;SDS011;3221;48.858;10.128;2022-09-09T02:11:49;1.93;;;1.10;;
6376;SDS011;3221;48.858;10.128;2022-09-09T02:14:50;3.80;;;1.20;;
6376;SDS011;3221;48.858;10.128;2022-09-09T02:17:27;1.30;;;1.10;;
6376;SDS011;3221;48.858;10.128;2022-09-09T02:20:07;3.40;;;1.10;;
6376;SDS011;3221;48.858;10.128;2022-09-09T02:22:45;2.67;;;1.47;;
6376;SDS011;3221;48.858;10.128;2022-09-09T02:25:18;4.10;;;1.20;;
6376;SDS011;3221;48.858;10.128;2022-09-09T02:27:50;2.70;;;1.30;;
6376;SDS011;3221;48.858;10.128;2022-09-09T02:30:21;2.07;;;1.20;;
6376;SDS011;3221;48.858;10.128;2022-09-09T02:32:53;1.20;;;0.90;;
6376;SDS011;3221;48.858;10.128;2022-09-09T02:35:34;1.80;;;1.13;;
6376;SDS011;3221;48.858;10.128;2022-09-09T02:38:06;1.83;;;1.10;;
6376;SDS011;3221;48.858;10.128;2022-09-09T02:40:38;3.23;;;1.20;;
6376;SDS011;3221;48.858;10.128;2022-09-09T02:43:05;3.07;;;1.13;;
6376;SDS011;3221;48.858;10.128;2022-09-09T02:45:42;3.23;;;1.50;;
6376;SDS011;3221;48.858;10.128;2022-09-09T02:48:33;3.33;;;1.40;;
6376;SDS011;3221;48.858;10.128;2022-09-09T02:51:10;1.57;;;1.20;;
6376;SDS011;3221;48.858;10.128;2022-09-09T02:54:09;2.87;;;1.20;;
6376;SDS011;3221;48.858;10.128;2022-09-09T02:56:46;1.97;;;1.20;;
6376;SDS011;3221;48.858;10.128;2022-09-09T02:59:20;1.80;;;1.10;;
6376;SDS011;3221;48.858;10.128;2022-09-09T03:01:48;1.70;;;1.10;;
6376;SDS011;3221;48.858;10.128;2022-09-09T03:04:15;2.20;;;1.30;;
6376;SDS011;3221;48.858;10.128;2022-09-09T03:06:42;2.90;;;1.10;;
6376;SDS011;3221;48.858;10.128;2022-09-09T03:09:17;1.20;;;1.10;;
6376;SDS011;3221;48.858;10.128;2022-09-09T03:11:44;1.67;;;0.93;;
6376;SDS011;3221;48.858;10.128;2022-09-09T03:14:13;3.17;;;1.20;;
6376;SDS011;3221;48.858;10.128;2022-09-09T03:16:40;3.97;;;1.07;;
6376;SDS011;3221;48.858;10.128;2022-09-09T03:19:09;1.10;;;1.00;;
6376;SDS011;3221;48.858;10.128;2022-09-09T03:21:36;3.07;;;1.20;;
6376;SDS011;3221;48.858;10.128;2022-09-09T03:24:03;1.90;;;1.00;;
6376;SDS011;3221;48.858;10.128;2022-09-09T03:26:30;2.40;;;1.03;;
6376;SDS011;3221;48.858;10.128;2022-09-09T03:28:59;2.07;;;1.00;;
6376;SDS011;3221;48.858;10.128;2022-09-09T03:31:28;3.33;;;1.20;;
6376;SDS011;3221;48.858;10.128;2022-09-09T03:33:57;1.93;;;0.90;;
6376;SDS011;3221;48.858;10.128;2022-09-09T03:36:28;2.70;;;1.10;;
6376;SDS011;3221;48.858;10.128;2022-09-09T03:38:55;1.63;;;1.00;;
6376;SDS011;3221;48.858;10.128;2022-09-09T03:41:25;1.97;;;1.07;;
6376;SDS011;3221;48.858;10.128;2022-09-09T03:43:52;2.10;;;1.20;;
6376;SDS011;3221;48.858;10.128;2022-09-09T03:46:22;2.33;;;1.20;;
6376;SDS011;3221;48.858;10.128;2022-09-09T03:48:52;1.67;;;1.20;;
6376;SDS011;3221;48.858;10.128;2022-09-09T03:51:19;1.63;;;1.00;;
6376;SDS011;3221;48.858;10.128;2022-09-09T03:53:49;2.87;;;1.20;;
6376;SDS011;3221;48.858;10.128;2022-09-09T03:56:15;1.73;;;1.00;;
6376;SDS011;3221;48.858;10.128;2022-09-09T03:58:42;3.23;;;1.10;;
6376;SDS011;3221;48.858;10.128;2022-09-09T04:01:12;1.93;;;0.93;;
6376;SDS011;3221;48.858;10.128;2022-09-09T04:03:42;1.93;;;1.10;;
6376;SDS011;3221;48.858;10.128;2022-09-09T04:06:09;1.43;;;1.00;;
6376;SDS011;3221;48.858;10.128;2022-09-09T04:08:41;1.50;;;1.40;;
6376;SDS011;3221;48.858;10.128;2022-09-09T04:11:09;2.83;;;1.10;;
6376;SDS011;3221;48.858;10.128;2022-09-09T04:13:37;3.53;;;1.30;;
6376;SDS011;3221;48.858;10.128;2022-09-09T04:16:10;2.43;;;1.30;;
6376;SDS011;3221;48.858;10.128;2022-09-09T04:18:41;2.47;;;1.50;;
6376;SDS011;3221;48.858;10.128;2022-09-09T04:21:08;3.07;;;1.30;;
6376;SDS011;3221;48.858;10.128;2022-09-09T04:23:36;2.73;;;1.27;;
6376;SDS011;3221;48.858;10.128;2022-09-09T04:26:04;3.03;;;1.47;;
6376;SDS011;3221;48.858;10.128;2022-09-09T04:28:33;2.47;;;1.47;;
6376;SDS011;3221;48.858;10.128;2022-09-09T04:31:15;2.97;;;1.47;;
6376;SDS011;3221;48.858;10.128;2022-09-09T04:33:46;3.57;;;1.50;;
6376;SDS011;3221;48.858;10.128;2022-09-09T04:36:14;3.47;;;1.47;;
6376;SDS011;3221;48.858;10.128;2022-09-09T04:38:41;3.80;;;1.60;;
6376;SDS011;3221;48.858;10.128;2022-09-09T04:41:08;3.57;;;2.33;;
6376;SDS011;3221;48.858;10.128;2022-09-09T04:43:40;3.43;;;1.80;;
6376;SDS011;3221;48.858;10.128;2022-09-09T04:46:08;4.47;;;1.97;;
6376;SDS011;3221;48.858;10.128;2022-09-09T04:48:36;2.93;;;1.87;;
6376;SDS011;3221;48.858;10.128;2022-09-09T04:51:05;3.37;;;1.70;;
6376;SDS011;3221;48.858;10.128;2022-09-09T04:53:35;2.47;;;1.80;;
6376;SDS011;3221;48.858;10.128;2022-09-09T04:58:50;3.37;;;1.60;;
6376;SDS011;3221;48.858;10.128;2022-09-09T05:01:20;2.27;;;1.73;;
6376;SDS011;3221;48.858;10.128;2022-09-09T05:03:49;2.37;;;1.67;;
6376;SDS011;3221;48.858;10.128;2022-09-09T05:06:20;3.50;;;1.70;;
6376;SDS011;3221;48.858;10.128;2022-09-09T05:08:52;3.30;;;1.60;;
6376;SDS011;3221;48.858;10.128;2022-09-09T05:11:24;3.10;;;1.20;;
6376;SDS011;3221;48.858;10.128;2022-09-09T05:13:58;2.60;;;1.40;;
6376;SDS011;3221;48.858;10.128;2022-09-09T05:16:27;1.50;;;1.40;;
6376;SDS011;3221;48.858;10.128;2022-09-09T05:18:55;3.77;;;1.30;;
6376;SDS011;3221;48.858;10.128;2022-09-09T05:21:23;1.60;;;1.40;;
6376;SDS011;3221;48.858;10.128;2022-09-09T05:23:53;2.40;;;1.40;;
6376;SDS011;3221;48.858;10.128;2022-09-09T05:26:21;1.87;;;1.27;;
6376;SDS011;3221;48.858;10.128;2022-09-09T05:28:51;2.17;;;1.50;;
6376;SDS011;3221;48.858;10.128;2022-09-09T05:31:18;1.80;;;1.17;;
6376;SDS011;3221;48.858;10.128;2022-09-09T05:33:48;3.27;;;1.33;;
6376;SDS011;3221;48.858;10.128;2022-09-09T05:36:16;2.47;;;1.40;;
6376;SDS011;3221;48.858;10.128;2022-09-09T05:38:49;2.83;;;1.40;;
6376;SDS011;3221;48.858;10.128;2022-09-09T05:41:16;1.70;;;1.20;;
6376;SDS011;3221;48.858;10.128;2022-09-09T05:43:45;1.97;;;1.10;;
6376;SDS011;3221;48.858;10.128;2022-09-09T05:46:18;2.23;;;1.23;;
6376;SDS011;3221;48.858;10.128;2022-09-09T05:48:49;2.20;;;1.07;;
6376;SDS011;3221;48.858;10.128;2022-09-09T05:51:20;2.97;;;1.37;;
6376;SDS011;3221;48.858;10.128;2022-09-09T05:53:49;3.57;;;1.10;;
6376;SDS011;3221;48.858;10.128;2022-09-09T05:56:22;1.83;;;1.17;;
6376;SDS011;3221;48.858;10.128;2022-09-09T05:58:52;1.90;;;1.20;;
6376;SDS011;3221;48.858;10.128;2022-09-09T06:01:22;3.67;;;1.20;;
6376;SDS011;3221;48.858;10.128;2022-09-09T06:03:51;1.57;;;1.10;;
6376;SDS011;3221;48.858;10.128;2022-09-09T06:06:27;1.43;;;1.20;;
6376;SDS011;3221;48.858;10.128;2022-09-09T06:09:06;1.67;;;1.30;;
6376;SDS011;3221;48.858;10.128;2022-09-09T06:11:40;1.53;;;1.43;;
6376;SDS011;3221;48.858;10.128;2022-09-09T06:14:08;2.10;;;1.40;;
6376;SDS011;3221;48.858;10.128;2022-09-09T06:16:37;2.30;;;1.23;;
6376;SDS011;3221;48.858;10.128;2022-09-09T06:19:12;1.60;;;1.27;;
6376;SDS011;3221;48.858;10.128;2022-09-09T06:21:40;1.67;;;1.20;;
6376;SDS011;3221;48.858;10.128;2022-09-09T06:24:09;2.70;;;1.40;;
6376;SDS011;3221;48.858;10.128;2022-09-09T06:26:40;1.93;;;1.30;;
6376;SDS011;3221;48.858;10.128;2022-09-09T06:29:09;2.67;;;1.33;;
6376;SDS011;3221;48.858;10.128;2022-09-09T06:31:37;3.07;;;1.30;;
6376;SDS011;3221;48.858;10.128;2022-09-09T06:34:21;2.80;;;1.33;;
6376;SDS011;3221;48.858;10.128;2022-09-09T06:36:52;2.03;;;1.13;;
6376;SDS011;3221;48.858;10.128;2022-09-09T06:39:18;3.53;;;1.80;;
6376;SDS011;3221;48.858;10.128;2022-09-09T06:41:45;1.80;;;1.17;;
6376;SDS011;3221;48.858;10.128;2022-09-09T06:44:33;2.80;;;1.13;;
6376;SDS011;3221;48.858;10.128;2022-09-09T06:47:03;1.63;;;1.33;;
6376;SDS011;3221;48.858;10.128;2022-09-09T06:49:31;2.27;;;1.20;;
6376;SDS011;3221;48.858;10.128;2022-09-09T06:52:00;1.30;;;1.13;;
6376;SDS011;3221;48.858;10.128;2022-09-09T06:54:28;2.43;;;1.33;;
6376;SDS011;3221;48.858;10.128;2022-09-09T06:56:55;1.33;;;1.23;;
6376;SDS011;3221;48.858;10.128;2022-09-09T06:59:23;3.53;;;1.30;;
6376;SDS011;3221;48.858;10.128;2022-09-09T07:01:53;2.90;;;1.30;;
6376;SDS011;3221;48.858;10.128;2022-09-09T07:04:22;2.93;;;1.43;;
6376;SDS011;3221;48.858;10.128;2022-09-09T07:06:49;2.13;;;1.30;;
6376;SDS011;3221;48.858;10.128;2022-09-09T07:09:22;4.13;;;1.47;;
6376;SDS011;3221;48.858;10.128;2022-09-09T07:11:51;2.30;;;1.67;;
6376;SDS011;3221;48.858;10.128;2022-09-09T07:14:20;2.40;;;1.63;;
6376;SDS011;3221;48.858;10.128;2022-09-09T07:16:53;2.50;;;1.47;;
6376;SDS011;3221;48.858;10.128;2022-09-09T07:19:25;3.20;;;1.70;;
6376;SDS011;3221;48.858;10.128;2022-09-09T07:21:53;2.87;;;1.60;;
6376;SDS011;3221;48.858;10.128;2022-09-09T07:24:22;3.07;;;1.73;;
6376;SDS011;3221;48.858;10.128;2022-09-09T07:26:50;3.00;;;1.80;;
6376;SDS011;3221;48.858;10.128;2022-09-09T07:29:18;2.60;;;1.50;;
6376;SDS011;3221;48.858;10.128;2022-09-09T07:31:47;2.80;;;1.47;;
6376;SDS011;3221;48.858;10.128;2022-09-09T07:34:19;3.27;;;1.73;;
6376;SDS011;3221;48.858;10.128;2022-09-09T07:36:47;2.37;;;1.67;;
6376;SDS011;3221;48.858;10.128;2022-09-09T07:39:16;3.13;;;1.77;;
6376;SDS011;3221;48.858;10.128;2022-09-09T07:41:48;3.03;;;1.80;;
6376;SDS011;3221;48.858;10.128;2022-09-09T07:44:19;4.90;;;1.83;;
6376;SDS011;3221;48.858;10.128;2022-09-09T07:46:52;6.03;;;2.20;;
6376;SDS011;3221;48.858;10.128;2022-09-09T07:49:24;4.97;;;2.53;;
6376;SDS011;3221;48.858;10.128;2022-09-09T07:51:59;4.83;;;2.40;;
6376;SDS011;3221;48.858;10.128;2022-09-09T07:54:26;2.37;;;1.90;;
6376;SDS011;3221;48.858;10.128;2022-09-09T07:56:53;2.93;;;2.30;;
6376;SDS011;3221;48.858;10.128;2022-09-09T07:59:23;4.83;;;2.40;;
6376;SDS011;3221;48.858;10.128;2022-09-09T08:01:52;5.13;;;2.40;;
6376;SDS011;3221;48.858;10.128;2022-09-09T08:04:26;3.97;;;2.70;;
6376;SDS011;3221;48.858;10.128;2022-09-09T08:06:55;3.00;;;2.10;;
6376;SDS011;3221;48.858;10.128;2022-09-09T08:09:25;4.80;;;2.40;;
6376;SDS011;3221;48.858;10.128;2022-09-09T08:12:01;3.00;;;1.73;;
6376;SDS011;3221;48.858;10.128;2022-09-09T08:14:29;2.87;;;1.80;;
6376;SDS011;3221;48.858;10.128;2022-09-09T08:16:57;2.50;;;1.67;;
6376;SDS011;3221;48.858;10.128;2022-09-09T08:19:26;3.13;;;1.37;;
6376;SDS011;3221;48.858;10.128;2022-09-09T08:21:57;2.97;;;1.67;;
6376;SDS011;3221;48.858;10.128;2022-09-09T08:24:24;1.53;;;1.30;;
6376;SDS011;3221;48.858;10.128;2022-09-09T08:26:51;4.03;;;1.77;;
6376;SDS011;3221;48.858;10.128;2022-09-09T08:29:21;1.97;;;1.37;;
6376;SDS011;3221;48.858;10.128;2022-09-09T08:31:52;3.10;;;1.50;;
6376;SDS011;3221;48.858;10.128;2022-09-09T08:34:21;3.37;;;1.70;;
6376;SDS011;3221;48.858;10.128;2022-09-09T08:36:50;2.37;;;1.70;;
6376;SDS011;3221;48.858;10.128;2022-09-09T08:39:22;4.23;;;1.57;;
6376;SDS011;3221;48.858;10.128;2022-09-09T08:50:39;3.33;;;1.90;;
6376;SDS011;3221;48.858;10.128;2022-09-09T08:53:15;2.50;;;1.47;;
6376;SDS011;3221;48.858;10.128;2022-09-09T08:58:25;1.97;;;1.80;;
6376;SDS011;3221;48.858;10.128;2022-09-09T09:11:51;3.37;;;1.80;;
6376;SDS011;3221;48.858;10.128;2022-09-09T09:14:24;2.80;;;1.80;;
6376;SDS011;3221;48.858;10.128;2022-09-09T09:19:28;3.37;;;1.70;;
6376;SDS011;3221;48.858;10.128;2022-09-09T09:22:02;4.17;;;2.37;;
6376;SDS011;3221;48.858;10.128;2022-09-09T09:24:39;4.10;;;2.00;;
6376;SDS011;3221;48.858;10.128;2022-09-09T09:27:16;3.63;;;1.77;;
6376;SDS011;3221;48.858;10.128;2022-09-09T09:29:52;3.27;;;1.70;;
6376;SDS011;3221;48.858;10.128;2022-09-09T09:32:50;3.70;;;1.80;;
6376;SDS011;3221;48.858;10.128;2022-09-09T09:35:27;2.80;;;1.57;;
6376;SDS011;3221;48.858;10.128;2022-09-09T09:37:54;3.17;;;1.67;;
6376;SDS011;3221;48.858;10.128;2022-09-09T09:40:53;1.67;;;1.50;;
6376;SDS011;3221;48.858;10.128;2022-09-09T09:43:26;3.43;;;1.73;;
6376;SDS011;3221;48.858;10.128;2022-09-09T09:45:58;3.73;;;2.10;;
6376;SDS011;3221;48.858;10.128;2022-09-09T09:48:43;2.97;;;1.90;;
6376;SDS011;3221;48.858;10.128;2022-09-09T09:51:13;2.23;;;1.23;;
6376;SDS011;3221;48.858;10.128;2022-09-09T09:53:43;3.07;;;1.57;;
6376;SDS011;3221;48.858;10.128;2022-09-09T09:56:13;2.83;;;1.47;;
6376;SDS011;3221;48.858;10.128;2022-09-09T10:01:20;3.00;;;1.60;;
6376;SDS011;3221;48.858;10.128;2022-09-09T10:03:55;2.10;;;1.53;;
6376;SDS011;3221;48.858;10.128;2022-09-09T10:06:43;4.13;;;2.30;;
6376;SDS011;3221;48.858;10.128;2022-09-09T10:09:24;5.23;;;2.20;;
6376;SDS011;3221;48.858;10.128;2022-09-09T10:22:36;4.80;;;2.07;;
6376;SDS011;3221;48.858;10.128;2022-09-09T10:39:08;3.83;;;1.40;;
6376;SDS011;3221;48.858;10.128;2022-09-09T10:44:39;5.77;;;1.47;;
6376;SDS011;3221;48.858;10.128;2022-09-09T10:56:12;2.10;;;1.57;;
6376;SDS011;3221;48.858;10.128;2022-09-09T10:58:48;2.57;;;1.60;;
6376;SDS011;3221;48.858;10.128;2022-09-09T11:01:18;2.77;;;1.60;;
6376;SDS011;3221;48.858;10.128;2022-09-09T11:03:51;3.60;;;1.67;;
6376;SDS011;3221;48.858;10.128;2022-09-09T11:06:50;3.10;;;1.50;;
6376;SDS011;3221;48.858;10.128;2022-09-09T11:09:25;2.27;;;1.30;;
6376;SDS011;3221;48.858;10.128;2022-09-09T11:11:58;2.90;;;1.47;;
6376;SDS011;3221;48.858;10.128;2022-09-09T11:17:30;2.60;;;1.50;;
6376;SDS011;3221;48.858;10.128;2022-09-09T11:20:06;3.53;;;1.27;;
6376;SDS011;3221;48.858;10.128;2022-09-09T11:22:48;4.20;;;1.43;;
6376;SDS011;3221;48.858;10.128;2022-09-09T11:25:31;2.63;;;1.20;;
6376;SDS011;3221;48.858;10.128;2022-09-09T11:36:35;3.57;;;1.20;;
6376;SDS011;3221;48.858;10.128;2022-09-09T11:42:19;2.70;;;1.20;;
6376;SDS011;3221;48.858;10.128;2022-09-09T11:44:48;2.13;;;1.00;;
6376;SDS011;3221;48.858;10.128;2022-09-09T11:47:37;1.30;;;1.10;;
6376;SDS011;3221;48.858;10.128;2022-09-09T11:52:42;2.43;;;1.20;;
6376;SDS011;3221;48.858;10.128;2022-09-09T11:55:25;2.17;;;1.20;;
6376;SDS011;3221;48.858;10.128;2022-09-09T11:58:02;1.27;;;0.90;;
6376;SDS011;3221;48.858;10.128;2022-09-09T12:03:00;3.80;;;1.93;;
6376;SDS011;3221;48.858;10.128;2022-09-09T12:05:40;3.10;;;1.20;;
6376;SDS011;3221;48.858;10.128;2022-09-09T12:08:10;2.37;;;1.00;;
6376;SDS011;3221;48.858;10.128;2022-09-09T12:10:52;1.47;;;1.00;;
6376;SDS011;3221;48.858;10.128;2022-09-09T12:13:21;3.47;;;1.40;;
6376;SDS011;3221;48.858;10.128;2022-09-09T12:15:54;1.73;;;1.30;;
6376;SDS011;3221;48.858;10.128;2022-09-09T12:18:23;2.30;;;1.10;;
6376;SDS011;3221;48.858;10.128;2022-09-09T12:23:36;2.10;;;1.10;;
6376;SDS011;3221;48.858;10.128;2022-09-09T12:31:56;3.10;;;1.13;;
6376;SDS011;3221;48.858;10.128;2022-09-09T12:34:36;3.37;;;1.20;;
6376;SDS011;3221;48.858;10.128;2022-09-09T12:40:05;3.17;;;1.10;;
6376;SDS011;3221;48.858;10.128;2022-09-09T12:42:32;1.60;;;0.97;;
6376;SDS011;3221;48.858;10.128;2022-09-09T12:45:15;1.50;;;1.03;;
6376;SDS011;3221;48.858;10.128;2022-09-09T12:47:56;1.73;;;1.00;;
6376;SDS011;3221;48.858;10.128;2022-09-09T12:50:35;1.73;;;1.10;;
6376;SDS011;3221;48.858;10.128;2022-09-09T12:53:25;2.07;;;1.00;;
6376;SDS011;3221;48.858;10.128;2022-09-09T12:55:57;1.37;;;1.23;;
6376;SDS011;3221;48.858;10.128;2022-09-09T12:58:30;1.63;;;1.10;;
6376;SDS011;3221;48.858;10.128;2022-09-09T13:01:01;1.50;;;0.80;;
6376;SDS011;3221;48.858;10.128;2022-09-09T13:03:41;2.43;;;0.73;;
6376;SDS011;3221;48.858;10.128;2022-09-09T13:06:13;1.73;;;1.00;;
6376;SDS011;3221;48.858;10.128;2022-09-09T13:08:45;1.30;;;0.90;;
6376;SDS011;3221;48.858;10.128;2022-09-09T13:11:13;1.03;;;0.83;;
6376;SDS011;3221;48.858;10.128;2022-09-09T13:13:50;1.63;;;1.00;;
6376;SDS011;3221;48.858;10.128;2022-09-09T13:16:20;1.03;;;0.80;;
6376;SDS011;3221;48.858;10.128;2022-09-09T13:18:50;0.90;;;0.60;;
6376;SDS011;3221;48.858;10.128;2022-09-09T13:21:17;1.40;;;0.70;;
6376;SDS011;3221;48.858;10.128;2022-09-09T13:23:49;1.53;;;0.70;;
6376;SDS011;3221;48.858;10.128;2022-09-09T13:26:21;1.80;;;0.90;;
6376;SDS011;3221;48.858;10.128;2022-09-09T13:28:53;2.30;;;0.90;;
6376;SDS011;3221;48.858;10.128;2022-09-09T13:31:28;1.13;;;0.87;;
6376;SDS011;3221;48.858;10.128;2022-09-09T13:33:56;2.30;;;1.00;;
6376;SDS011;3221;48.858;10.128;2022-09-09T13:36:30;2.17;;;0.90;;
6376;SDS011;3221;48.858;10.128;2022-09-09T13:38:59;1.07;;;0.83;;
6376;SDS011;3221;48.858;10.128;2022-09-09T13:41:33;1.20;;;0.80;;
6376;SDS011;3221;48.858;10.128;2022-09-09T13:44:20;1.90;;;1.00;;
6376;SDS011;3221;48.858;10.128;2022-09-09T13:49:47;1.30;;;0.70;;
6376;SDS011;3221;48.858;10.128;2022-09-09T13:52:16;1.20;;;1.00;;
6376;SDS011;3221;48.858;10.128;2022-09-09T13:54:48;1.50;;;1.10;;
6376;SDS011;3221;48.858;10.128;2022-09-09T13:57:21;3.23;;;0.90;;
6376;SDS011;3221;48.858;10.128;2022-09-09T13:59:49;1.33;;;0.90;;
6376;SDS011;3221;48.858;10.128;2022-09-09T14:02:30;2.07;;;0.93;;
6376;SDS011;3221;48.858;10.128;2022-09-09T14:04:57;1.57;;;0.83;;
6376;SDS011;3221;48.858;10.128;2022-09-09T14:07:24;1.83;;;0.90;;
6376;SDS011;3221;48.858;10.128;2022-09-09T14:09:51;2.37;;;0.90;;
6376;SDS011;3221;48.858;10.128;2022-09-09T14:12:18;2.47;;;1.00;;
6376;SDS011;3221;48.858;10.128;2022-09-09T14:14:46;2.60;;;1.17;;
6376;SDS011;3221;48.858;10.128;2022-09-09T14:17:13;1.43;;;0.90;;
6376;SDS011;3221;48.858;10.128;2022-09-09T14:19:41;1.43;;;1.10;;
6376;SDS011;3221;48.858;10.128;2022-09-09T14:22:08;2.87;;;1.10;;
6376;SDS011;3221;48.858;10.128;2022-09-09T14:24:35;2.37;;;0.93;;
6376;SDS011;3221;48.858;10.128;2022-09-09T14:27:02;2.33;;;1.30;;
6376;SDS011;3221;48.858;10.128;2022-09-09T14:29:29;2.80;;;0.90;;
6376;SDS011;3221;48.858;10.128;2022-09-09T14:31:56;4.63;;;1.10;;
6376;SDS011;3221;48.858;10.128;2022-09-09T14:34:23;1.43;;;0.90;;
6376;SDS011;3221;48.858;10.128;2022-09-09T14:36:50;2.13;;;0.90;;
6376;SDS011;3221;48.858;10.128;2022-09-09T14:39:17;2.77;;;1.00;;
6376;SDS011;3221;48.858;10.128;2022-09-09T14:41:44;1.70;;;0.93;;
6376;SDS011;3221;48.858;10.128;2022-09-09T14:44:11;4.20;;;1.03;;
6376;SDS011;3221;48.858;10.128;2022-09-09T14:46:38;2.10;;;1.00;;
6376;SDS011;3221;48.858;10.128;2022-09-09T14:49:05;3.47;;;1.20;;
6376;SDS011;3221;48.858;10.128;2022-09-09T14:51:32;1.57;;;1.13;;
6376;SDS011;3221;48.858;10.128;2022-09-09T14:53:59;2.43;;;1.30;;
6376;SDS011;3221;48.858;10.128;2022-09-09T14:56:27;1.93;;;1.10;;
6376;SDS011;3221;48.858;10.128;2022-09-09T14:58:56;1.40;;;0.90;;
6376;SDS011;3221;48.858;10.128;2022-09-09T15:01:24;2.03;;;0.93;;
6376;SDS011;3221;48.858;10.128;2022-09-09T15:03:56;4.63;;;1.50;;
6376;SDS011;3221;48.858;10.128;2022-09-09T15:06:25;2.57;;;1.47;;
6376;SDS011;3221;48.858;10.128;2022-09-09T15:08:53;2.40;;;1.30;;
6376;SDS011;3221;48.858;10.128;2022-09-09T15:11:25;3.87;;;1.23;;
6376;SDS011;3221;48.858;10.128;2022-09-09T15:13:54;1.53;;;1.17;;
6376;SDS011;3221;48.858;10.128;2022-09-09T15:16:22;2.77;;;1.30;;
6376;SDS011;3221;48.858;10.128;2022-09-09T15:18:51;4.60;;;1.60;;
6376;SDS011;3221;48.858;10.128;2022-09-09T15:21:21;1.77;;;1.57;;
6376;SDS011;3221;48.858;10.128;2022-09-09T15:23:50;1.80;;;1.50;;
6376;SDS011;3221;48.858;10.128;2022-09-09T15:26:17;3.07;;;1.63;;
6376;SDS011;3221;48.858;10.128;2022-09-09T15:28:45;2.10;;;1.30;;
6376;SDS011;3221;48.858;10.128;2022-09-09T15:31:14;3.37;;;1.60;;
6376;SDS011;3221;48.858;10.128;2022-09-09T15:33:49;2.60;;;1.37;;
6376;SDS011;3221;48.858;10.128;2022-09-09T15:36:27;1.63;;;1.33;;
6376;SDS011;3221;48.858;10.128;2022-09-09T15:38:56;2.40;;;1.40;;
6376;SDS011;3221;48.858;10.128;2022-09-09T15:41:23;1.77;;;1.10;;
6376;SDS011;3221;48.858;10.128;2022-09-09T15:43:51;2.90;;;1.20;;
6376;SDS011;3221;48.858;10.128;2022-09-09T15:46:21;2.83;;;1.30;;
6376;SDS011;3221;48.858;10.128;2022-09-09T15:48:57;3.63;;;1.17;;
6376;SDS011;3221;48.858;10.128;2022-09-09T15:51:44;2.97;;;1.00;;
6376;SDS011;3221;48.858;10.128;2022-09-09T15:54:17;2.30;;;1.30;;
6376;SDS011;3221;48.858;10.128;2022-09-09T15:56:47;2.97;;;1.00;;
6376;SDS011;3221;48.858;10.128;2022-09-09T15:59:17;1.47;;;0.90;;
6376;SDS011;3221;48.858;10.128;2022-09-09T16:01:44;2.07;;;0.90;;
6376;SDS011;3221;48.858;10.128;2022-09-09T16:04:12;4.37;;;1.40;;
6376;SDS011;3221;48.858;10.128;2022-09-09T16:06:39;4.23;;;1.30;;
6376;SDS011;3221;48.858;10.128;2022-09-09T16:09:06;4.53;;;1.43;;
6376;SDS011;3221;48.858;10.128;2022-09-09T16:11:35;4.70;;;1.30;;
6376;SDS011;3221;48.858;10.128;2022-09-09T16:14:03;4.47;;;1.40;;
6376;SDS011;3221;48.858;10.128;2022-09-09T16:16:33;2.83;;;1.40;;
6376;SDS011;3221;48.858;10.128;2022-09-09T16:19:08;3.60;;;1.20;;
6376;SDS011;3221;48.858;10.128;2022-09-09T16:21:38;1.97;;;1.07;;
6376;SDS011;3221;48.858;10.128;2022-09-09T16:24:11;3.80;;;1.33;;
6376;SDS011;3221;48.858;10.128;2022-09-09T16:26:41;2.37;;;1.00;;
6376;SDS011;3221;48.858;10.128;2022-09-09T16:29:13;2.43;;;1.10;;
6376;SDS011;3221;48.858;10.128;2022-09-09T16:31:41;1.97;;;1.00;;
6376;SDS011;3221;48.858;10.128;2022-09-09T16:34:09;1.43;;;1.00;;
6376;SDS011;3221;48.858;10.128;2022-09-09T16:36:36;3.67;;;1.50;;
6376;SDS011;3221;48.858;10.128;2022-09-09T16:39:06;2.40;;;1.27;;
6376;SDS011;3221;48.858;10.128;2022-09-09T16:41:38;3.50;;;1.60;;
6376;SDS011;3221;48.858;10.128;2022-09-09T16:44:07;2.23;;;1.60;;
6376;SDS011;3221;48.858;10.128;2022-09-09T16:46:36;2.17;;;1.37;;
6376;SDS011;3221;48.858;10.128;2022-09-09T16:49:06;2.23;;;1.20;;
6376;SDS011;3221;48.858;10.128;2022-09-09T16:51:35;2.93;;;1.27;;
6376;SDS011;3221;48.858;10.128;2022-09-09T16:54:05;4.67;;;1.27;;
6376;SDS011;3221;48.858;10.128;2022-09-09T16:56:34;2.37;;;1.40;;
6376;SDS011;3221;48.858;10.128;2022-09-09T16:59:06;3.00;;;1.10;;
6376;SDS011;3221;48.858;10.128;2022-09-09T17:01:38;1.53;;;0.97;;
6376;SDS011;3221;48.858;10.128;2022-09-09T17:04:08;1.47;;;0.80;;
6376;SDS011;3221;48.858;10.128;2022-09-09T17:06:37;3.13;;;0.90;;
6376;SDS011;3221;48.858;10.128;2022-09-09T17:09:05;2.73;;;1.00;;
6376;SDS011;3221;48.858;10.128;2022-09-09T17:11:34;2.13;;;0.90;;
6376;SDS011;3221;48.858;10.128;2022-09-09T17:14:03;2.43;;;1.10;;
6376;SDS011;3221;48.858;10.128;2022-09-09T17:16:31;1.70;;;1.00;;
6376;SDS011;3221;48.858;10.128;2022-09-09T17:19:02;2.67;;;1.17;;
6376;SDS011;3221;48.858;10.128;2022-09-09T17:21:30;3.07;;;1.20;;
6376;SDS011;3221;48.858;10.128;2022-09-09T17:23:58;2.23;;;0.83;;
6376;SDS011;3221;48.858;10.128;2022-09-09T17:26:30;3.43;;;1.10;;
6376;SDS011;3221;48.858;10.128;2022-09-09T17:28:59;2.83;;;0.83;;
6376;SDS011;3221;48.858;10.128;2022-09-09T17:31:27;3.77;;;1.30;;
6376;SDS011;3221;48.858;10.128;2022-09-09T17:33:55;1.43;;;1.00;;
6376;SDS011;3221;48.858;10.128;2022-09-09T17:36:33;1.93;;;0.93;;
6376;SDS011;3221;48.858;10.128;2022-09-09T17:39:01;4.13;;;1.10;;
6376;SDS011;3221;48.858;10.128;2022-09-09T17:41:33;1.67;;;1.00;;
6376;SDS011;3221;48.858;10.128;2022-09-09T17:44:05;3.20;;;1.17;;
6376;SDS011;3221;48.858;10.128;2022-09-09T17:46:34;1.63;;;0.90;;
6376;SDS011;3221;48.858;10.128;2022-09-09T17:49:07;1.10;;;0.90;;
6376;SDS011;3221;48.858;10.128;2022-09-09T17:51:36;2.77;;;1.00;;